Time;durP1;ratioP1;P1;durP2;ratioP2;P2;SDS_P1;SDS_P2;PMS_P1;PMS_P2;Temp;Humidity;BMP_temperature;BMP_pressure;BME280_temperature;BME280_humidity;BME280_pressure;Samples;Min_cycle;Max_cycle;Signal;HPM_P1;HPM_P2
2022/10/13 00:01:57;;;;;;;;;;;;;;;13.98;73.60;101247.41;5343371;32;35598;-70
2022/10/13 00:04:59;;;;;;;;;;;;;;;14.15;74.36;101252.84;5353551;32;34420;-71
2022/10/13 00:08:01;;;;;;;;;;;;;;;13.75;75.39;101246.50;5347931;32;37468;-69
2022/10/13 00:11:08;;;;;;;;;;;;;;;14.41;73.25;101248.28;5350736;32;34978;-85
2022/10/13 00:14:10;;;;;;;;;;;;;;;14.48;72.21;101248.00;5355422;32;34606;-86
2022/10/13 00:17:12;;;;;;;;;;;;;;;13.86;74.59;101246.09;5345483;32;34254;-69
2022/10/13 00:20:14;;;;;;;;;;;;;;;14.05;74.46;101248.88;5358263;32;34413;-70
2022/10/13 00:23:16;;;;;;;;;;;;;;;14.60;72.10;101260.72;5332855;32;34347;-85
2022/10/13 00:26:18;;;;;;;;;;;;;;;14.82;70.97;101243.97;5332682;32;36865;-70
2022/10/13 00:29:20;;;;;;;;;;;;;;;14.46;72.20;101241.03;5351053;32;35136;-85
2022/10/13 00:32:22;;;;;;;;;;;;;;;14.75;70.90;101248.66;5339009;32;35653;-85
2022/10/13 00:35:24;;;;;;;;;;;;;;;14.69;69.99;101242.75;5358666;32;35807;-86
2022/10/13 00:38:26;;;;;;;;;;;;;;;14.21;71.80;101241.19;5341473;32;44698;-71
2022/10/13 00:41:28;;;;;;;;;;;;;;;14.36;71.99;101241.44;5357524;32;35052;-70
2022/10/13 00:44:49;;;;;;;;;;;;;;;14.09;73.86;101240.75;5343388;32;35218;-70
2022/10/13 00:47:55;;;;;;;;;;;;;;;15.06;69.51;101240.22;5340241;32;34375;-70
2022/10/13 00:50:57;;;;;;;;;;;;;;;14.89;69.33;101248.06;5341076;32;46728;-86
2022/10/13 00:53:59;;;;;;;;;;;;;;;14.16;73.49;101243.16;5327753;32;35039;-85
2022/10/13 00:57:01;;;;;;;;;;;;;;;13.64;75.33;101248.69;5357120;32;35524;-86
2022/10/13 01:00:03;;;;;;;;;;;;;;;13.80;75.46;101238.41;5330400;32;35659;-85
2022/10/13 01:03:05;;;;;;;;;;;;;;;14.39;73.31;101236.94;5356000;32;35122;-86
2022/10/13 01:06:07;;;;;;;;;;;;;;;14.80;70.73;101237.84;5331257;32;34268;-71
2022/10/13 01:09:09;;;;;;;;;;;;;;;14.51;71.32;101233.81;5341630;32;34927;-69
2022/10/13 01:12:11;;;;;;;;;;;;;;;14.06;73.92;101230.31;5358592;32;34409;-69
2022/10/13 01:15:16;;;;;;;;;;;;;;;14.43;72.13;101230.59;5329483;32;35116;-85
2022/10/13 01:18:24;;;;;;;;;;;;;;;14.76;70.52;101233.63;5342032;32;34422;-69
2022/10/13 01:21:45;;;;;;;;;;;;;;;14.79;69.83;101239.63;5340487;32;45186;-85
2022/10/13 01:25:09;;;;;;;;;;;;;;;14.77;70.36;101235.34;5324214;32;34113;-69
2022/10/13 01:28:20;;;;;;;;;;;;;;;14.39;71.37;101232.50;5340653;32;34365;-70
2022/10/13 01:31:26;;;;;;;;;;;;;;;14.53;71.33;101235.44;5325533;32;35611;-71
2022/10/13 01:34:31;;;;;;;;;;;;;;;13.30;76.32;101227.13;5341703;32;45407;-69
2022/10/13 01:37:35;;;;;;;;;;;;;;;13.70;75.66;101239.66;5342365;32;35891;-69
2022/10/13 01:40:46;;;;;;;;;;;;;;;13.25;77.78;101240.47;5334839;32;34617;-79
2022/10/13 01:43:50;;;;;;;;;;;;;;;13.51;76.75;101235.09;5354026;32;34335;-70
2022/10/13 01:46:52;;;;;;;;;;;;;;;13.54;76.21;101236.78;5343002;32;34153;-86
2022/10/13 01:49:54;;;;;;;;;;;;;;;13.57;75.43;101231.34;5357579;32;34644;-86
2022/10/13 01:52:57;;;;;;;;;;;;;;;13.26;77.52;101227.22;5343677;32;44306;-86
2022/10/13 01:55:59;;;;;;;;;;;;;;;13.52;76.72;101223.63;5357155;32;35013;-70
2022/10/13 01:59:05;;;;;;;;;;;;;;;13.48;76.09;101229.94;5340166;32;35454;-85
2022/10/13 02:02:07;;;;;;;;;;;;;;;13.71;75.38;101225.53;5342158;32;35849;-69
2022/10/13 02:05:14;;;;;;;;;;;;;;;13.95;74.34;101224.59;5358215;32;34834;-79
2022/10/13 02:08:18;;;;;;;;;;;;;;;13.16;77.80;101219.69;5327119;32;34574;-79
2022/10/13 02:11:21;;;;;;;;;;;;;;;13.53;75.85;101216.56;5357886;32;34682;-86
2022/10/13 02:14:25;;;;;;;;;;;;;;;12.63;79.38;101222.44;5316935;32;38115;-78
2022/10/13 02:17:27;;;;;;;;;;;;;;;13.35;77.30;101212.84;5346771;32;45213;-85
2022/10/13 02:20:29;;;;;;;;;;;;;;;14.19;72.85;101208.66;5345003;32;35358;-70
2022/10/13 02:23:30;;;;;;;;;;;;;;;14.05;72.33;101218.03;5315149;32;34507;-87
2022/10/13 02:26:33;;;;;;;;;;;;;;;13.57;74.76;101212.87;5344604;32;35116;-85
2022/10/13 02:29:47;;;;;;;;;;;;;;;13.24;76.46;101222.91;5343179;32;34551;-85
2022/10/13 02:32:49;;;;;;;;;;;;;;;13.90;73.34;101228.31;5350149;32;34279;-85
2022/10/13 02:35:50;;;;;;;;;;;;;;;13.18;76.76;101223.97;5328809;32;34147;-70
2022/10/13 02:38:52;;;;;;;;;;;;;;;12.80;79.07;101217.44;5329365;32;34595;-86
2022/10/13 02:41:54;;;;;;;;;;;;;;;12.90;78.81;101215.34;5351434;32;35519;-70
2022/10/13 02:44:56;;;;;;;;;;;;;;;14.11;73.30;101214.28;5327438;32;44866;-84
2022/10/13 02:47:58;;;;;;;;;;;;;;;14.71;69.16;101214.44;5355605;32;34859;-70
2022/10/13 02:51:00;;;;;;;;;;;;;;;14.41;70.22;101228.00;5341421;32;34801;-70
2022/10/13 02:54:02;;;;;;;;;;;;;;;13.85;72.63;101225.00;5354958;32;35856;-70
2022/10/13 02:57:03;;;;;;;;;;;;;;;14.01;71.61;101221.69;5341991;32;35457;-87
2022/10/13 03:00:06;;;;;;;;;;;;;;;13.25;75.56;101225.50;5346319;32;36300;-69
2022/10/13 03:03:08;;;;;;;;;;;;;;;12.95;76.71;101227.47;5349325;32;35753;-70
2022/10/13 03:06:10;;;;;;;;;;;;;;;12.86;76.79;101229.53;5343329;32;34267;-70
2022/10/13 03:09:12;;;;;;;;;;;;;;;12.82;77.37;101228.81;5355732;32;34710;-86
2022/10/13 03:12:14;;;;;;;;;;;;;;;12.96;76.20;101233.59;5345871;32;34105;-70
2022/10/13 03:15:15;;;;;;;;;;;;;;;12.85;77.27;101223.41;5345064;32;34588;-70
2022/10/13 03:18:17;;;;;;;;;;;;;;;13.29;74.49;101218.34;5340626;32;34316;-86
2022/10/13 03:21:19;;;;;;;;;;;;;;;13.48;73.14;101214.09;5348689;32;34840;-70
2022/10/13 03:24:21;;;;;;;;;;;;;;;13.47;73.45;101211.50;5336687;32;35085;-70
2022/10/13 03:27:23;;;;;;;;;;;;;;;14.15;70.26;101225.56;5337516;32;35164;-86
2022/10/13 03:30:25;;;;;;;;;;;;;;;13.88;70.54;101225.75;5341611;32;32559;-71
2022/10/13 03:33:27;;;;;;;;;;;;;;;12.19;78.65;101227.41;5337841;32;44585;-86
2022/10/13 03:36:29;;;;;;;;;;;;;;;12.63;77.46;101222.44;5370064;32;34929;-70
2022/10/13 03:39:31;;;;;;;;;;;;;;;12.91;76.67;101228.47;5341952;32;34980;-87
2022/10/13 03:42:36;;;;;;;;;;;;;;;12.80;76.03;101219.19;5345026;32;35274;-70
2022/10/13 03:45:38;;;;;;;;;;;;;;;12.41;78.17;101219.66;5355590;32;34716;-70
2022/10/13 03:48:40;;;;;;;;;;;;;;;13.06;75.38;101207.72;5327704;32;36538;-78
2022/10/13 03:51:42;;;;;;;;;;;;;;;12.81;76.12;101213.00;5358755;32;35358;-85
2022/10/13 03:54:44;;;;;;;;;;;;;;;12.24;78.69;101214.97;5342874;32;34146;-77
2022/10/13 03:57:46;;;;;;;;;;;;;;;13.13;75.21;101209.22;5356666;32;35019;-85
2022/10/13 04:00:48;;;;;;;;;;;;;;;12.65;76.24;101215.34;5328622;32;34703;-85
2022/10/13 04:03:54;;;;;;;;;;;;;;;12.96;74.95;101209.84;5332838;32;34055;-86
2022/10/13 04:06:56;;;;;;;;;;;;;;;13.79;70.79;101216.41;5356859;32;45148;-69
2022/10/13 04:09:58;;;;;;;;;;;;;;;13.80;70.03;101204.91;5342834;32;35789;-70
2022/10/13 04:13:00;;;;;;;;;;;;;;;12.27;76.98;101208.72;5357960;32;34195;-86
2022/10/13 04:16:06;;;;;;;;;;;;;;;12.82;76.13;101206.84;5344341;32;35991;-87
2022/10/13 04:19:10;;;;;;;;;;;;;;;13.77;70.45;101205.03;5356674;32;35444;-69
2022/10/13 04:22:12;;;;;;;;;;;;;;;13.39;71.36;101205.63;5341294;32;35285;-86
2022/10/13 04:25:14;;;;;;;;;;;;;;;13.09;72.51;101205.84;5320671;32;34775;-85
2022/10/13 04:28:15;;;;;;;;;;;;;;;12.99;73.36;101207.09;5356459;32;34233;-70
2022/10/13 04:31:18;;;;;;;;;;;;;;;12.97;73.59;101201.88;5341984;32;35016;-70
2022/10/13 04:34:20;;;;;;;;;;;;;;;12.82;73.45;101206.84;5355436;32;34326;-87
2022/10/13 04:37:22;;;;;;;;;;;;;;;12.76;74.68;101210.56;5341399;32;35007;-71
2022/10/13 04:40:24;;;;;;;;;;;;;;;12.38;75.77;101212.72;5356880;32;34331;-86
2022/10/13 04:43:26;;;;;;;;;;;;;;;12.14;77.21;101213.53;5341724;32;43298;-72
2022/10/13 04:46:28;;;;;;;;;;;;;;;12.77;74.00;101198.22;5343913;32;35143;-70
2022/10/13 04:49:30;;;;;;;;;;;;;;;13.51;70.75;101215.75;5356260;32;34890;-70
2022/10/13 04:52:33;;;;;;;;;;;;;;;13.64;69.54;101203.78;5341405;32;34404;-86
2022/10/13 04:55:35;;;;;;;;;;;;;;;13.44;69.87;101204.56;5344696;32;35175;-85
2022/10/13 04:58:37;;;;;;;;;;;;;;;13.76;68.91;101203.31;5340350;32;35430;-69
2022/10/13 05:01:39;;;;;;;;;;;;;;;13.88;68.26;101204.59;5356927;32;35587;-85
2022/10/13 05:04:41;;;;;;;;;;;;;;;13.71;69.11;101209.69;5347864;32;35414;-69
2022/10/13 05:07:43;;;;;;;;;;;;;;;13.29;70.32;101210.41;5342154;32;34102;-71
2022/10/13 05:10:55;;;;;;;;;;;;;;;13.17;71.76;101203.78;5361120;32;33955;-85
2022/10/13 05:13:56;;;;;;;;;;;;;;;13.19;71.34;101201.94;5324207;32;45215;-87
2022/10/13 05:16:58;;;;;;;;;;;;;;;12.52;74.66;101212.25;5358629;32;34934;-69
2022/10/13 05:20:00;;;;;;;;;;;;;;;13.22;71.78;101206.28;5342382;32;34874;-85
2022/10/13 05:23:02;;;;;;;;;;;;;;;13.53;70.07;101208.66;5333950;32;35223;-70
2022/10/13 05:26:05;;;;;;;;;;;;;;;12.81;72.70;101205.94;5333314;32;34928;-87
2022/10/13 05:29:07;;;;;;;;;;;;;;;13.15;72.25;101204.75;5334867;32;35440;-71
2022/10/13 05:32:09;;;;;;;;;;;;;;;13.24;70.37;101209.72;5353351;32;34125;-86
2022/10/13 05:35:11;;;;;;;;;;;;;;;13.59;70.08;101207.53;5330926;32;35406;-72
2022/10/13 05:38:13;;;;;;;;;;;;;;;13.11;71.57;101216.34;5352193;32;34934;-71
2022/10/13 05:41:14;;;;;;;;;;;;;;;12.93;72.80;101218.72;5341894;32;34874;-71
2022/10/13 05:44:16;;;;;;;;;;;;;;;13.64;71.84;101211.72;5346930;32;35433;-72
2022/10/13 05:47:18;;;;;;;;;;;;;;;13.91;69.73;101209.78;5333303;32;35883;-72
2022/10/13 05:50:20;;;;;;;;;;;;;;;13.32;71.69;101215.56;5340762;32;34101;-77
2022/10/13 05:53:23;;;;;;;;;;;;;;;14.64;66.69;101219.13;5342085;32;34252;-75
2022/10/13 05:56:26;;;;;;;;;;;;;;;14.80;64.42;101219.31;5335718;32;34694;-90
2022/10/13 05:59:28;;;;;;;;;;;;;;;14.78;64.91;101224.69;5354010;32;44520;-83
2022/10/13 06:02:33;;;;;;;;;;;;;;;15.51;61.07;101220.53;5331784;32;34022;-73
2022/10/13 06:05:36;;;;;;;;;;;;;;;14.36;65.60;101224.69;5347787;32;35931;-72
2022/10/13 06:08:38;;;;;;;;;;;;;;;14.75;63.53;101226.59;5343035;32;33398;-72
2022/10/13 06:11:40;;;;;;;;;;;;;;;14.71;64.75;101236.47;5343570;32;34790;-75
2022/10/13 06:14:42;;;;;;;;;;;;;;;14.42;65.12;101231.50;5351153;32;35447;-77
2022/10/13 06:17:45;;;;;;;;;;;;;;;15.87;60.86;101225.06;5339851;32;33439;-77
2022/10/13 06:20:47;;;;;;;;;;;;;;;15.94;59.87;101227.34;5355473;32;34114;-79
2022/10/13 06:23:50;;;;;;;;;;;;;;;15.73;60.89;101227.53;5326119;32;34028;-74
2022/10/13 06:26:51;;;;;;;;;;;;;;;15.85;60.19;101234.91;5333551;32;34556;-86
2022/10/13 06:29:54;;;;;;;;;;;;;;;16.93;56.95;101229.47;5355155;32;35907;-86
2022/10/13 06:32:56;;;;;;;;;;;;;;;18.25;54.08;101231.13;5332485;32;44346;-77
2022/10/13 06:36:02;;;;;;;;;;;;;;;17.97;53.45;101231.84;5357768;32;36614;-76
2022/10/13 06:39:04;;;;;;;;;;;;;;;16.58;58.14;101233.06;5340477;32;33503;-75
2022/10/13 06:42:06;;;;;;;;;;;;;;;16.82;57.69;101233.66;5353163;32;34565;-81
2022/10/13 06:45:08;;;;;;;;;;;;;;;16.97;56.59;101232.84;5345053;32;34867;-91
2022/10/13 06:48:10;;;;;;;;;;;;;;;17.81;54.39;101229.16;5342118;32;33743;-70
2022/10/13 06:51:12;;;;;;;;;;;;;;;17.35;56.02;101232.63;5357601;32;35549;-81
2022/10/13 06:54:14;;;;;;;;;;;;;;;17.45;55.20;101232.03;5343852;32;35460;-72
2022/10/13 06:57:16;;;;;;;;;;;;;;;17.31;55.78;101231.91;5357752;32;34200;-74
2022/10/13 07:00:18;;;;;;;;;;;;;;;18.77;52.34;101227.22;5339870;32;33998;-77
2022/10/13 07:03:20;;;;;;;;;;;;;;;17.80;54.98;101226.59;5357381;32;35393;-75
2022/10/13 07:06:22;;;;;;;;;;;;;;;16.94;56.53;101225.91;5345525;32;35732;-78
2022/10/13 07:09:24;;;;;;;;;;;;;;;19.28;50.49;101222.34;5341689;32;35552;-78
2022/10/13 07:12:27;;;;;;;;;;;;;;;20.03;48.23;101215.78;5353483;32;42978;-75
2022/10/13 07:15:31;;;;;;;;;;;;;;;20.36;46.39;101215.34;5340848;32;34798;-77
2022/10/13 07:18:33;;;;;;;;;;;;;;;21.47;44.37;101212.13;5352672;32;34179;-76
2022/10/13 07:21:35;;;;;;;;;;;;;;;20.12;47.50;101216.97;5329526;32;34408;-80
2022/10/13 07:24:37;;;;;;;;;;;;;;;17.71;53.54;101224.41;5339023;32;35366;-69
2022/10/13 07:27:39;;;;;;;;;;;;;;;18.07;51.32;101230.37;5340308;32;34297;-76
2022/10/13 07:30:42;;;;;;;;;;;;;;;18.82;49.90;101233.13;5331400;32;33469;-72
2022/10/13 07:33:45;;;;;;;;;;;;;;;19.90;45.74;101209.50;5353273;32;34183;-72
2022/10/13 07:36:47;;;;;;;;;;;;;;;18.42;50.20;101224.81;5340744;32;34679;-74
2022/10/13 07:39:50;;;;;;;;;;;;;;;18.03;51.41;101227.97;5357307;32;35082;-72
2022/10/13 07:42:52;;;;;;;;;;;;;;;17.11;53.92;101227.66;5340153;32;33462;-70
2022/10/13 07:45:54;;;;;;;;;;;;;;;16.62;55.42;101224.88;5354432;32;35191;-69
2022/10/13 07:48:56;;;;;;;;;;;;;;;16.79;54.17;101219.59;5343384;32;44602;-69
2022/10/13 07:51:58;;;;;;;;;;;;;;;16.45;55.90;101225.72;5342865;32;34040;-70
2022/10/13 07:55:00;;;;;;;;;;;;;;;17.42;51.42;101220.72;5355067;32;34247;-70
2022/10/13 07:58:02;;;;;;;;;;;;;;;16.72;53.01;101215.53;5341141;32;35515;-70
2022/10/13 08:01:04;;;;;;;;;;;;;;;16.43;53.93;101218.78;5356348;32;34937;-70
2022/10/13 08:04:06;;;;;;;;;;;;;;;17.23;51.72;101218.19;5340639;32;34607;-70
2022/10/13 08:07:08;;;;;;;;;;;;;;;17.79;50.00;101216.91;5352763;32;35415;-72
2022/10/13 08:10:10;;;;;;;;;;;;;;;16.90;47.70;101219.03;5335842;32;34045;-75
2022/10/13 08:13:12;;;;;;;;;;;;;;;17.61;46.90;101216.09;5322429;32;35979;-75
2022/10/13 08:16:14;;;;;;;;;;;;;;;17.90;46.00;101210.97;5355337;32;34226;-74
2022/10/13 08:19:16;;;;;;;;;;;;;;;18.09;45.29;101217.81;5339770;32;33993;-73
2022/10/13 08:22:18;;;;;;;;;;;;;;;18.21;45.00;101210.09;5360114;32;34195;-76
2022/10/13 08:25:26;;;;;;;;;;;;;;;18.18;44.91;101203.16;5323833;32;35700;-88
2022/10/13 08:28:28;;;;;;;;;;;;;;;17.80;46.47;101214.16;5345372;32;45198;-72
2022/10/13 08:31:30;;;;;;;;;;;;;;;18.17;46.09;101196.13;5344941;32;34799;-73
2022/10/13 08:34:34;;;;;;;;;;;;;;;17.98;46.06;101196.31;5337283;32;35579;-74
2022/10/13 08:37:36;;;;;;;;;;;;;;;17.73;43.68;101198.66;5351968;32;34375;-75
2022/10/13 08:40:38;;;;;;;;;;;;;;;18.80;41.72;101197.72;5331381;32;34318;-82
2022/10/13 08:43:39;;;;;;;;;;;;;;;17.70;44.76;101194.31;5350527;32;33167;-75
2022/10/13 08:47:07;;;;;;;;;;;;;;;17.14;46.94;101200.97;5337950;32;44674;-78
2022/10/13 08:50:11;;;;;;;;;;;;;;;16.92;46.98;101195.06;5330827;32;34280;-76
2022/10/13 08:53:15;;;;;;;;;;;;;;;18.15;43.92;101195.34;5351070;32;35494;-70
2022/10/13 08:56:20;;;;;;;;;;;;;;;18.40;43.70;101187.62;5325759;32;35414;-70
2022/10/13 08:59:22;;;;;;;;;;;;;;;17.81;44.57;101185.78;5346290;32;35262;-72
2022/10/13 09:02:28;;;;;;;;;;;;;;;19.22;41.85;101183.59;5326535;32;34861;-77
2022/10/13 09:05:35;;;;;;;;;;;;;;;17.92;44.65;101183.38;5349807;32;44604;-75
2022/10/13 09:09:01;;;;;;;;;;;;;;;18.47;43.86;101181.94;5336206;32;35466;-71
2022/10/13 09:12:05;;;;;;;;;;;;;;;18.66;43.96;101185.22;5338901;32;44643;-71
2022/10/13 09:15:08;;;;;;;;;;;;;;;18.10;45.60;101182.31;5323252;32;796392;-73
2022/10/13 09:18:11;;;;;;;;;;;;;;;18.22;45.87;101185.19;5345313;32;35249;-74
2022/10/13 09:21:18;;;;;;;;;;;;;;;19.46;42.72;101167.88;5368598;32;34047;-74
2022/10/13 09:24:20;;;;;;;;;;;;;;;19.31;42.43;101172.34;5324797;32;35340;-73
2022/10/13 09:27:22;;;;;;;;;;;;;;;19.79;41.77;101180.88;5337445;32;35685;-76
2022/10/13 09:30:25;;;;;;;;;;;;;;;19.57;41.46;101168.00;5357400;32;33482;-70
2022/10/13 09:33:27;;;;;;;;;;;;;;;20.09;41.04;101169.97;5333246;32;44649;-70
2022/10/13 09:36:30;;;;;;;;;;;;;;;20.79;39.92;101169.69;5339040;32;35427;-66
2022/10/13 09:39:32;;;;;;;;;;;;;;;20.91;39.54;101166.19;5345744;32;32781;-74
2022/10/13 09:42:34;;;;;;;;;;;;;;;21.01;39.06;101153.91;5351692;32;34244;-71
2022/10/13 09:45:36;;;;;;;;;;;;;;;20.77;39.16;101152.94;5334224;32;35616;-70
2022/10/13 09:48:38;;;;;;;;;;;;;;;19.67;41.40;101163.84;5326350;32;35439;-68
2022/10/13 09:51:41;;;;;;;;;;;;;;;19.31;42.68;101155.50;5355283;32;36817;-70
2022/10/13 09:54:47;;;;;;;;;;;;;;;20.15;40.78;101155.37;5322176;32;34157;-70
2022/10/13 09:57:50;;;;;;;;;;;;;;;22.48;36.01;101143.09;5350752;32;33174;-70
2022/10/13 10:00:52;;;;;;;;;;;;;;;22.51;34.60;101142.00;5341067;32;33476;-76
2022/10/13 10:03:54;;;;;;;;;;;;;;;24.04;32.39;101138.63;5345623;32;34950;-79
2022/10/13 10:06:56;;;;;;;;;;;;;;;25.95;29.88;101129.03;5346843;32;44968;-77
2022/10/13 10:10:00;;;;;;;;;;;;;;;25.80;29.79;101140.22;5339750;32;34214;-77
2022/10/13 10:13:02;;;;;;;;;;;;;;;25.23;30.55;101133.69;5353274;32;34327;-76
2022/10/13 10:16:05;;;;;;;;;;;;;;;27.19;27.87;101120.88;5327889;32;34609;-77
2022/10/13 10:19:10;;;;;;;;;;;;;;;28.89;25.47;101107.19;5346624;32;36042;-76
2022/10/13 10:22:18;;;;;;;;;;;;;;;27.17;27.40;101103.97;5338257;32;34357;-77
2022/10/13 10:25:26;;;;;;;;;;;;;;;23.68;33.60;101105.78;5323726;32;34194;-76
2022/10/13 10:28:37;;;;;;;;;;;;;;;22.10;36.49;101112.06;5351999;32;42996;-77
2022/10/13 10:31:49;;;;;;;;;;;;;;;24.02;33.24;101105.66;5341538;32;35038;-73
2022/10/13 10:34:54;;;;;;;;;;;;;;;23.83;32.96;101106.38;5358140;32;35358;-70
2022/10/13 10:38:11;;;;;;;;;;;;;;;23.96;32.79;101101.66;5339672;32;45040;-71
2022/10/13 10:41:31;;;;;;;;;;;;;;;21.66;37.54;101109.16;5347626;32;34181;-74
2022/10/13 10:44:34;;;;;;;;;;;;;;;21.71;37.92;101104.31;5352187;32;44902;-74
2022/10/13 10:47:37;;;;;;;;;;;;;;;21.58;37.75;101099.88;5328802;32;34211;-76
2022/10/13 10:50:39;;;;;;;;;;;;;;;21.41;38.44;101097.59;5354572;32;34517;-75
2022/10/13 10:53:59;;;;;;;;;;;;;;;23.25;35.29;101087.00;5345130;32;35468;-76
2022/10/13 10:57:08;;;;;;;;;;;;;;;22.43;36.54;101081.84;5331621;32;46911;-89
2022/10/13 11:00:12;;;;;;;;;;;;;;;21.81;37.89;101078.56;5334006;32;34561;-73
2022/10/13 11:03:21;;;;;;;;;;;;;;;19.68;42.59;101088.22;5325757;32;34150;-87
2022/10/13 11:06:32;;;;;;;;;;;;;;;20.18;41.30;101077.78;5353060;32;34404;-75
2022/10/13 11:09:41;;;;;;;;;;;;;;;20.46;40.91;101061.59;5318808;32;46326;-73
2022/10/13 11:12:52;;;;;;;;;;;;;;;21.05;39.25;101064.50;5352326;32;35188;-75
2022/10/13 11:15:54;;;;;;;;;;;;;;;20.39;41.18;101060.28;5350011;32;34315;-74
2022/10/13 11:19:06;;;;;;;;;;;;;;;20.36;40.99;101056.97;5327383;32;44459;-73
2022/10/13 11:22:12;;;;;;;;;;;;;;;21.77;38.65;101055.72;5340027;32;35526;-75
2022/10/13 11:25:17;;;;;;;;;;;;;;;21.23;39.76;101040.94;5320383;32;35697;-69
2022/10/13 11:28:22;;;;;;;;;;;;;;;22.04;37.78;101042.06;5352580;32;35736;-76
2022/10/13 11:31:37;;;;;;;;;;;;;;;21.35;39.32;101044.56;5342871;32;34807;-71
2022/10/13 11:34:39;;;;;;;;;;;;;;;22.24;37.41;101032.50;5337283;32;35632;-73
2022/10/13 11:37:56;;;;;;;;;;;;;;;21.41;38.96;101030.75;5355853;32;34191;-72
2022/10/13 11:41:12;;;;;;;;;;;;;;;21.24;39.17;101031.94;5335197;32;35539;-74
2022/10/13 11:44:37;;;;;;;;;;;;;;;20.53;41.12;101025.47;5353734;32;34160;-74
2022/10/13 11:47:39;;;;;;;;;;;;;;;20.86;40.62;101021.38;5327353;32;34365;-69
2022/10/13 11:50:43;;;;;;;;;;;;;;;21.03;40.10;101012.12;5343842;32;34330;-75
2022/10/13 11:53:49;;;;;;;;;;;;;;;22.49;37.22;101010.88;5335908;32;35326;-76
2022/10/13 11:56:54;;;;;;;;;;;;;;;21.62;38.72;101004.19;5340550;32;34265;-75
2022/10/13 11:59:56;;;;;;;;;;;;;;;21.33;39.17;101001.06;5355700;32;43682;-74
2022/10/13 12:02:58;;;;;;;;;;;;;;;22.17;37.44;100995.50;5339587;32;34325;-78
2022/10/13 12:06:03;;;;;;;;;;;;;;;21.40;39.30;100999.63;5349502;32;34363;-81
2022/10/13 12:09:19;;;;;;;;;;;;;;;21.41;39.15;100990.63;5336500;32;34874;-79
2022/10/13 12:12:21;;;;;;;;;;;;;;;20.42;41.09;100996.00;5327462;32;34727;-77
2022/10/13 12:15:31;;;;;;;;;;;;;;;20.20;41.84;100995.78;5350511;32;33358;-77
2022/10/13 12:18:37;;;;;;;;;;;;;;;20.96;40.49;100989.50;5336403;32;44404;-77
2022/10/13 12:21:56;;;;;;;;;;;;;;;22.76;36.40;100977.47;5350817;32;32697;-75
2022/10/13 12:24:59;;;;;;;;;;;;;;;21.85;38.04;100978.38;5310253;32;44450;-72
2022/10/13 12:28:01;;;;;;;;;;;;;;;22.02;38.04;100969.88;5327652;32;35521;-69
2022/10/13 12:31:03;;;;;;;;;;;;;;;21.60;38.77;100972.22;5353731;32;32586;-77
2022/10/13 12:34:26;;;;;;;;;;;;;;;20.45;41.51;100968.25;5339278;32;34447;-76
2022/10/13 12:37:32;;;;;;;;;;;;;;;22.29;37.44;100958.03;5335155;32;44434;-70
2022/10/13 12:40:34;;;;;;;;;;;;;;;22.70;36.84;100947.53;5346808;32;34645;-85
2022/10/13 12:43:36;;;;;;;;;;;;;;;23.48;35.46;100950.97;5338619;32;34456;-73
2022/10/13 12:46:40;;;;;;;;;;;;;;;24.67;33.05;100950.53;5352652;32;34681;-86
2022/10/13 12:49:42;;;;;;;;;;;;;;;25.39;31.79;100940.31;5327680;32;34376;-73
2022/10/13 12:52:44;;;;;;;;;;;;;;;23.80;34.47;100944.72;5349445;32;35495;-76
2022/10/13 12:55:52;;;;;;;;;;;;;;;22.74;36.71;100947.28;5326538;32;36248;-79
2022/10/13 12:58:54;;;;;;;;;;;;;;;24.20;34.51;100934.03;5344341;32;34053;-74
2022/10/13 13:01:58;;;;;;;;;;;;;;;25.40;31.44;100941.16;5344503;32;44652;-71
2022/10/13 13:05:02;;;;;;;;;;;;;;;24.39;33.24;100933.31;5340441;32;35539;-69
2022/10/13 13:08:23;;;;;;;;;;;;;;;23.90;34.45;100940.28;5344364;32;35572;-74
2022/10/13 13:11:32;;;;;;;;;;;;;;;25.08;32.25;100938.75;5325206;32;38272;-78
2022/10/13 13:14:35;;;;;;;;;;;;;;;25.70;31.36;100928.50;5352791;32;35532;-70
2022/10/13 13:17:37;;;;;;;;;;;;;;;23.69;34.82;100937.56;5341846;32;35427;-77
2022/10/13 13:21:00;;;;;;;;;;;;;;;23.62;35.38;100931.03;5337349;32;46468;-72
2022/10/13 13:24:02;;;;;;;;;;;;;;;25.82;31.28;100917.44;5335527;32;33779;-75
2022/10/13 13:27:22;;;;;;;;;;;;;;;29.79;25.60;100909.75;5332125;32;35241;-75
2022/10/13 13:30:25;;;;;;;;;;;;;;;29.37;25.62;100908.09;5337693;32;35434;-76
2022/10/13 13:33:27;;;;;;;;;;;;;;;31.04;23.86;100892.62;5341777;32;44447;-76
2022/10/13 13:36:29;;;;;;;;;;;;;;;31.86;22.64;100892.78;5341275;32;34297;-77
2022/10/13 13:39:30;;;;;;;;;;;;;;;30.96;23.36;100889.97;5347636;32;34292;-74
2022/10/13 13:42:33;;;;;;;;;;;;;;;31.87;22.48;100888.19;5339067;32;34340;-76
2022/10/13 13:45:34;;;;;;;;;;;;;;;30.87;23.35;100891.06;5346728;32;35533;-72
2022/10/13 13:48:36;;;;;;;;;;;;;;;29.11;25.87;100892.00;5337914;32;34360;-76
2022/10/13 13:51:38;;;;;;;;;;;;;;;26.89;29.03;100898.97;5342931;32;34388;-79
2022/10/13 13:54:41;;;;;;;;;;;;;;;24.47;33.50;100903.91;5337889;32;35018;-79
2022/10/13 13:57:43;;;;;;;;;;;;;;;23.95;34.65;100900.44;5338675;32;35490;-76
2022/10/13 14:00:45;;;;;;;;;;;;;;;23.16;36.44;100900.88;5341738;32;35311;-76
2022/10/13 14:03:47;;;;;;;;;;;;;;;23.43;37.16;100897.69;5330013;32;34464;-74
2022/10/13 14:06:50;;;;;;;;;;;;;;;22.29;37.96;100901.81;5335279;32;34335;-77
2022/10/13 14:09:53;;;;;;;;;;;;;;;21.96;38.86;100902.59;5328087;32;33550;-78
2022/10/13 14:13:01;;;;;;;;;;;;;;;22.68;37.65;100895.91;5336963;32;44715;-77
2022/10/13 14:16:06;;;;;;;;;;;;;;;23.62;35.63;100898.84;5326073;32;34372;-78
2022/10/13 14:19:09;;;;;;;;;;;;;;;22.12;38.61;100901.31;5333451;32;34241;-76
2022/10/13 14:22:11;;;;;;;;;;;;;;;21.48;40.32;100900.09;5334888;32;35344;-77
2022/10/13 14:25:13;;;;;;;;;;;;;;;21.56;40.31;100903.88;5309250;32;34306;-79
2022/10/13 14:28:15;;;;;;;;;;;;;;;22.88;37.47;100902.34;5348046;32;35685;-78
2022/10/13 14:31:19;;;;;;;;;;;;;;;22.67;37.72;100894.19;5327206;32;35416;-73
2022/10/13 14:34:21;;;;;;;;;;;;;;;22.32;37.77;100897.03;5333913;32;34511;-77
2022/10/13 14:37:23;;;;;;;;;;;;;;;21.78;39.49;100891.53;5342829;32;35227;-75
2022/10/13 14:40:31;;;;;;;;;;;;;;;22.03;39.00;100891.31;5331477;32;44761;-77
2022/10/13 14:43:32;;;;;;;;;;;;;;;21.47;40.58;100896.56;5334335;32;34449;-77
2022/10/13 14:46:34;;;;;;;;;;;;;;;21.67;40.00;100894.19;5335076;32;34347;-74
2022/10/13 14:49:36;;;;;;;;;;;;;;;20.91;41.46;100890.97;5353628;32;34911;-73
2022/10/13 14:52:38;;;;;;;;;;;;;;;21.57;39.97;100892.19;5322909;32;34914;-81
2022/10/13 14:55:41;;;;;;;;;;;;;;;21.67;39.52;100888.84;5339961;32;34332;-75
2022/10/13 14:58:43;;;;;;;;;;;;;;;20.72;41.50;100895.97;5332691;32;35594;-80
2022/10/13 15:01:46;;;;;;;;;;;;;;;21.28;40.39;100886.44;5332366;32;35537;-73
2022/10/13 15:04:48;;;;;;;;;;;;;;;21.49;39.95;100883.94;5352325;32;34214;-83
2022/10/13 15:07:50;;;;;;;;;;;;;;;21.45;40.65;100879.81;5317241;32;34548;-83
2022/10/13 15:10:59;;;;;;;;;;;;;;;21.94;39.51;100881.31;5339254;32;34358;-80
2022/10/13 15:14:01;;;;;;;;;;;;;;;21.72;39.49;100875.97;5336968;32;44639;-72
2022/10/13 15:17:03;;;;;;;;;;;;;;;20.61;41.72;100877.19;5324854;32;35126;-81
2022/10/13 15:20:05;;;;;;;;;;;;;;;20.64;42.15;100882.34;5357990;32;35044;-73
2022/10/13 15:23:07;;;;;;;;;;;;;;;20.94;41.90;100884.56;5317036;32;35407;-72
2022/10/13 15:26:09;;;;;;;;;;;;;;;20.73;42.22;100889.66;5335756;32;35776;-81
2022/10/13 15:29:12;;;;;;;;;;;;;;;20.28;43.15;100889.34;5325009;32;34271;-78
2022/10/13 15:32:16;;;;;;;;;;;;;;;21.52;40.10;100870.34;5349437;32;35467;-79
2022/10/13 15:35:19;;;;;;;;;;;;;;;21.45;40.13;100873.59;5340901;32;34490;-81
2022/10/13 15:38:22;;;;;;;;;;;;;;;20.53;42.95;100877.78;5337226;32;34170;-80
2022/10/13 15:41:24;;;;;;;;;;;;;;;21.30;40.75;100871.13;5345202;32;35561;-80
2022/10/13 15:44:26;;;;;;;;;;;;;;;21.44;40.42;100877.22;5325209;32;43126;-81